createdAt,value
2018-03-18T00:00:15.026Z,92.80
2018-03-18T00:02:44.235Z,92.90
2018-03-18T00:05:12.520Z,92.90
2018-03-18T00:07:40.055Z,92.80
2018-03-18T00:10:07.573Z,92.80
2018-03-18T00:12:35.098Z,92.90
2018-03-18T00:15:03.392Z,92.90
2018-03-18T00:17:31.325Z,92.90
2018-03-18T00:19:59.622Z,93.10
2018-03-18T00:22:27.919Z,93.00
2018-03-18T00:24:55.438Z,92.90
2018-03-18T00:27:22.951Z,93.20
2018-03-18T00:29:50.475Z,92.80
2018-03-18T00:32:18.871Z,93.00
2018-03-18T00:34:46.291Z,93.00
2018-03-18T00:37:13.801Z,92.80
2018-03-18T00:39:41.330Z,92.80
2018-03-18T00:42:08.840Z,92.80
2018-03-18T00:44:36.371Z,92.70
2018-03-18T00:47:03.925Z,92.80
2018-03-18T00:49:32.215Z,92.90
2018-03-18T00:52:03.472Z,92.90
2018-03-18T00:54:31.011Z,92.90
2018-03-18T00:56:58.528Z,93.00
2018-03-18T00:59:26.181Z,93.00
2018-03-18T01:01:53.694Z,92.90
2018-03-18T01:04:21.218Z,92.90
2018-03-18T01:06:48.741Z,92.80
2018-03-18T01:09:16.281Z,92.80
2018-03-18T01:11:43.803Z,92.70
2018-03-18T01:14:12.107Z,92.60
2018-03-18T01:16:40.388Z,92.60
2018-03-18T01:19:07.919Z,92.60
2018-03-18T01:21:35.433Z,92.70
2018-03-18T01:24:02.971Z,92.80
2018-03-18T01:26:30.482Z,92.70
2018-03-18T01:28:57.990Z,92.70
2018-03-18T01:31:25.548Z,92.70
2018-03-18T01:33:53.072Z,92.80
2018-03-18T01:36:20.598Z,93.20
2018-03-18T01:38:48.102Z,92.90
2018-03-18T01:41:15.634Z,93.00
2018-03-18T01:43:43.144Z,92.80
2018-03-18T01:46:11.439Z,92.70
2018-03-18T01:48:38.947Z,92.60
2018-03-18T01:51:06.484Z,92.70
2018-03-18T01:53:33.999Z,92.80
2018-03-18T01:56:02.287Z,92.90
2018-03-18T01:58:29.790Z,92.80
2018-03-18T02:00:57.322Z,92.80
2018-03-18T02:03:24.826Z,92.80
2018-03-18T02:05:52.351Z,92.60
2018-03-18T02:08:19.853Z,92.60
2018-03-18T02:10:47.381Z,92.50
2018-03-18T02:13:14.906Z,92.40
2018-03-18T02:15:42.430Z,92.40
2018-03-18T02:18:09.935Z,92.40
2018-03-18T02:20:37.495Z,92.40
2018-03-18T02:23:05.002Z,92.50
2018-03-18T02:25:32.531Z,92.60
2018-03-18T02:28:00.047Z,92.50
2018-03-18T02:30:28.335Z,92.30
2018-03-18T02:32:55.854Z,92.20
2018-03-18T02:35:29.302Z,92.30
2018-03-18T02:37:56.819Z,92.40
2018-03-18T02:40:24.362Z,92.30
2018-03-18T02:42:51.871Z,92.20
2018-03-18T02:45:20.172Z,91.90
2018-03-18T02:47:47.684Z,91.90
2018-03-18T02:50:15.202Z,91.90
2018-03-18T02:52:42.726Z,92.00
2018-03-18T02:55:10.242Z,92.00
2018-03-18T02:57:37.763Z,91.80
2018-03-18T03:00:05.275Z,91.80
2018-03-18T03:02:32.798Z,91.60
2018-03-18T03:05:00.308Z,91.60
2018-03-18T03:07:27.839Z,91.30
2018-03-18T03:09:55.351Z,91.00
2018-03-18T03:12:22.889Z,91.10
2018-03-18T03:14:51.186Z,90.80
2018-03-18T03:17:19.567Z,90.80
2018-03-18T03:19:47.095Z,90.80
2018-03-18T03:22:14.628Z,90.50
2018-03-18T03:24:42.154Z,90.50
2018-03-18T03:27:09.706Z,90.30
2018-03-18T03:29:37.234Z,90.30
2018-03-18T03:32:04.772Z,90.00
2018-03-18T03:34:32.302Z,89.80
2018-03-18T03:36:59.818Z,88.80
2018-03-18T03:39:27.341Z,89.00
2018-03-18T03:41:54.863Z,88.90
2018-03-18T03:44:23.159Z,88.30
2018-03-18T03:46:50.697Z,88.30
2018-03-18T03:49:19.004Z,89.30
2018-03-18T03:51:46.523Z,89.30
2018-03-18T03:54:14.824Z,90.20
2018-03-18T03:56:42.350Z,90.00
2018-03-18T03:59:09.888Z,90.30
2018-03-18T04:01:37.399Z,90.40
2018-03-18T04:04:05.742Z,90.20
2018-03-18T04:06:33.245Z,90.20
2018-03-18T04:09:00.771Z,89.80
2018-03-18T04:11:28.269Z,88.80
2018-03-18T04:13:55.785Z,89.10
2018-03-18T04:16:23.299Z,88.60
2018-03-18T04:18:50.827Z,88.50
2018-03-18T04:21:19.121Z,88.60
2018-03-18T04:23:47.404Z,88.70
2018-03-18T04:26:14.915Z,88.70
2018-03-18T04:28:42.446Z,89.20
2018-03-18T04:31:09.963Z,89.40
2018-03-18T04:33:37.494Z,89.70
2018-03-18T04:36:05.002Z,89.30
2018-03-18T04:38:32.509Z,89.00
2018-03-18T04:41:00.044Z,88.60
2018-03-18T04:43:27.546Z,88.30
2018-03-18T04:45:55.066Z,88.20
2018-03-18T04:48:22.575Z,87.10
2018-03-18T04:50:50.863Z,86.30
2018-03-18T04:53:19.140Z,86.80
2018-03-18T04:55:47.428Z,86.10
2018-03-18T04:58:14.930Z,86.30
2018-03-18T05:00:42.446Z,86.60
2018-03-18T05:03:10.719Z,85.70
2018-03-18T05:05:38.254Z,85.60
2018-03-18T05:08:05.763Z,85.90
2018-03-18T05:10:33.290Z,85.70
2018-03-18T05:13:01.570Z,86.10
2018-03-18T05:15:29.169Z,86.00
2018-03-18T05:17:56.657Z,86.20
2018-03-18T05:20:24.179Z,86.70
2018-03-18T05:22:51.688Z,86.60
2018-03-18T05:25:19.210Z,86.60
2018-03-18T05:27:46.727Z,86.40
2018-03-18T05:30:15.063Z,86.10
2018-03-18T05:32:42.792Z,86.00
2018-03-18T05:35:10.381Z,86.40
2018-03-18T05:37:37.951Z,86.40
2018-03-18T05:40:05.483Z,86.20
2018-03-18T05:42:33.018Z,85.70
2018-03-18T05:45:01.302Z,85.40
2018-03-18T05:47:29.610Z,84.70
2018-03-18T05:49:57.122Z,84.70
2018-03-18T05:52:25.425Z,84.40
2018-03-18T05:54:52.946Z,84.30
2018-03-18T05:57:20.473Z,84.10
2018-03-18T05:59:47.990Z,84.20
2018-03-18T06:02:16.280Z,85.10
2018-03-18T06:04:44.550Z,85.00
2018-03-18T06:07:12.834Z,85.20
2018-03-18T06:09:41.107Z,85.60
2018-03-18T06:12:08.635Z,85.40
2018-03-18T06:14:36.142Z,85.70
2018-03-18T06:17:04.079Z,85.50
2018-03-18T06:19:31.586Z,85.30
2018-03-18T06:21:59.120Z,84.90
2018-03-18T06:24:26.627Z,84.70
2018-03-18T06:26:54.150Z,85.10
2018-03-18T06:29:21.653Z,84.60
2018-03-18T06:31:49.174Z,85.10
2018-03-18T06:34:16.679Z,85.20
2018-03-18T06:36:44.202Z,84.60
2018-03-18T06:39:11.707Z,84.80
2018-03-18T06:41:39.915Z,85.00
2018-03-18T06:44:07.428Z,87.10
2018-03-18T06:46:34.970Z,86.40
2018-03-18T06:49:02.527Z,85.50
2018-03-18T06:51:30.029Z,85.20
2018-03-18T06:53:58.323Z,85.90
2018-03-18T06:56:26.595Z,85.50
2018-03-18T06:58:54.885Z,85.20
2018-03-18T07:01:23.158Z,84.70
2018-03-18T07:03:50.687Z,84.70
2018-03-18T07:06:18.190Z,85.50
2018-03-18T07:08:45.710Z,85.50
2018-03-18T07:11:13.222Z,84.90
2018-03-18T07:13:40.786Z,85.20
2018-03-18T07:16:08.294Z,85.10
2018-03-18T07:18:35.814Z,85.30
2018-03-18T07:21:03.327Z,84.40
2018-03-18T07:23:31.618Z,85.00
2018-03-18T07:25:59.889Z,85.30
2018-03-18T07:28:27.426Z,85.20
2018-03-18T07:30:54.930Z,85.50
2018-03-18T07:33:22.455Z,87.80
2018-03-18T07:35:50.730Z,84.40
2018-03-18T07:38:18.252Z,84.20
2018-03-18T07:40:45.778Z,84.10
2018-03-18T07:43:13.318Z,84.20
2018-03-18T07:45:41.586Z,84.40
2018-03-18T07:48:09.111Z,84.40
2018-03-18T07:50:36.638Z,84.30
2018-03-18T07:53:04.163Z,83.70
2018-03-18T07:55:31.666Z,83.90
2018-03-18T07:57:59.174Z,83.70
2018-03-18T08:00:27.925Z,84.50
2018-03-18T08:02:55.434Z,83.80
2018-03-18T08:05:23.727Z,84.00
2018-03-18T08:07:52.005Z,84.20
2018-03-18T08:10:20.312Z,84.20
2018-03-18T08:12:47.813Z,84.20
2018-03-18T08:15:15.339Z,83.70
2018-03-18T08:17:42.854Z,84.00
2018-03-18T08:20:11.150Z,83.90
2018-03-18T08:22:39.793Z,83.10
2018-03-18T08:25:07.309Z,83.00
2018-03-18T08:27:34.814Z,83.30
2018-03-18T08:30:02.350Z,83.40
2018-03-18T08:32:30.878Z,82.40
2018-03-18T08:34:58.402Z,82.10
2018-03-18T08:37:25.906Z,81.30
2018-03-18T08:39:54.206Z,82.50
2018-03-18T08:42:29.250Z,82.50
2018-03-18T08:44:56.782Z,81.50
2018-03-18T08:47:25.158Z,80.80
2018-03-18T08:49:52.656Z,80.80
2018-03-18T08:52:20.967Z,81.30
2018-03-18T08:54:48.510Z,81.20
2018-03-18T08:57:16.030Z,80.60
2018-03-18T08:59:43.845Z,80.60
2018-03-18T09:02:11.322Z,81.90
2018-03-18T09:04:38.899Z,80.70
2018-03-18T09:07:07.176Z,79.60
2018-03-18T09:09:35.462Z,80.00
2018-03-18T09:12:03.767Z,80.50
2018-03-18T09:14:31.274Z,80.30
2018-03-18T09:16:58.798Z,80.50
2018-03-18T09:19:27.108Z,80.00
2018-03-18T09:21:54.635Z,80.60
2018-03-18T09:24:22.161Z,79.30
2018-03-18T09:26:50.551Z,79.20
2018-03-18T09:29:18.070Z,78.70
2018-03-18T09:31:45.650Z,79.40
2018-03-18T09:34:13.414Z,78.60
2018-03-18T09:36:42.066Z,78.70
2018-03-18T09:39:09.581Z,78.60
2018-03-18T09:41:37.117Z,78.20
2018-03-18T09:44:05.406Z,78.40
2018-03-18T09:46:33.711Z,78.10
2018-03-18T09:49:01.216Z,78.00
2018-03-18T09:51:28.736Z,78.00
2018-03-18T09:53:56.233Z,78.50
2018-03-18T09:56:23.815Z,77.10
2018-03-18T09:58:51.288Z,76.90
2018-03-18T10:01:19.567Z,77.40
2018-03-18T10:03:47.863Z,76.00
2018-03-18T10:06:15.378Z,76.00
2018-03-18T10:08:42.907Z,77.30
2018-03-18T10:11:10.431Z,79.30
2018-03-18T10:13:37.982Z,76.10
2018-03-18T10:16:06.258Z,74.20
2018-03-18T10:18:34.574Z,74.60
2018-03-18T10:21:02.079Z,74.50
2018-03-18T10:23:29.610Z,75.30
2018-03-18T10:25:57.128Z,76.10
2018-03-18T10:28:24.659Z,75.30
2018-03-18T10:30:52.930Z,76.50
2018-03-18T10:33:21.221Z,76.90
2018-03-18T10:35:49.491Z,76.00
2018-03-18T10:38:17.784Z,76.60
2018-03-18T10:40:45.315Z,76.50
2018-03-18T10:43:13.640Z,76.30
2018-03-18T10:45:41.154Z,76.20
2018-03-18T10:48:09.450Z,76.60
2018-03-18T10:50:37.721Z,76.10
2018-03-18T10:53:06.007Z,75.00
2018-03-18T10:55:33.510Z,75.00
2018-03-18T10:58:01.055Z,75.10
2018-03-18T11:00:34.127Z,75.30
2018-03-18T11:03:01.660Z,75.50
2018-03-18T11:05:29.944Z,74.20
2018-03-18T11:07:58.218Z,74.60
2018-03-18T11:10:26.517Z,71.80
2018-03-18T11:12:54.026Z,71.70
2018-03-18T11:15:22.438Z,73.50
2018-03-18T11:17:50.731Z,72.20
2018-03-18T11:20:18.255Z,72.20
2018-03-18T11:22:45.771Z,71.10
2018-03-18T11:25:13.303Z,71.90
2018-03-18T11:27:41.578Z,74.10
2018-03-18T11:30:09.130Z,74.10
2018-03-18T11:32:36.625Z,71.20
2018-03-18T11:35:04.152Z,71.10
2018-03-18T11:37:33.352Z,71.20
2018-03-18T11:40:01.638Z,73.30
2018-03-18T11:42:29.140Z,73.20
2018-03-18T11:44:56.681Z,70.40
2018-03-18T11:47:24.188Z,71.60
2018-03-18T11:49:51.710Z,77.10
2018-03-18T11:52:19.519Z,72.50
2018-03-18T11:54:47.043Z,71.50
2018-03-18T11:57:14.542Z,72.70
2018-03-18T11:59:42.063Z,73.40
2018-03-18T12:02:09.582Z,72.00
2018-03-18T12:04:37.874Z,71.30
2018-03-18T12:07:05.388Z,71.20
2018-03-18T12:09:33.111Z,71.80
2018-03-18T12:12:00.639Z,70.80
2018-03-18T12:14:28.916Z,71.40
2018-03-18T12:16:57.197Z,70.50
2018-03-18T12:22:14.826Z,71.10
2018-03-18T12:24:42.344Z,70.20
2018-03-18T12:27:09.870Z,71.30
2018-03-18T12:29:38.151Z,70.40
2018-03-18T12:32:05.682Z,70.30
2018-03-18T12:34:33.230Z,70.00
2018-03-18T12:37:00.766Z,71.30
2018-03-18T12:39:52.381Z,70.00
2018-03-18T12:45:41.917Z,69.90
2018-03-18T12:48:09.438Z,69.20
2018-03-18T12:50:37.394Z,71.40
2018-03-18T12:53:04.901Z,70.20
2018-03-18T12:55:32.423Z,69.30
2018-03-18T12:58:35.286Z,70.90
2018-03-18T13:01:02.825Z,70.80
2018-03-18T13:03:30.338Z,71.10
2018-03-18T13:05:57.905Z,71.50
2018-03-18T13:08:29.266Z,70.70
2018-03-18T13:10:57.982Z,71.80
2018-03-18T13:13:25.521Z,71.70
2018-03-18T13:15:53.040Z,71.40
2018-03-18T13:18:20.570Z,71.20
2018-03-18T13:20:48.906Z,71.50
2018-03-18T13:23:16.446Z,71.40
2018-03-18T13:25:43.960Z,71.20
2018-03-18T13:28:11.489Z,72.10
2018-03-18T13:30:39.006Z,72.90
2018-03-18T13:33:06.542Z,72.90
2018-03-18T13:35:34.053Z,73.80
2018-03-18T13:38:01.576Z,72.60
2018-03-18T13:40:29.859Z,72.80
2018-03-18T13:42:58.151Z,75.00
2018-03-18T13:45:25.858Z,74.90
2018-03-18T13:47:53.429Z,76.10
2018-03-18T13:50:20.918Z,74.80
2018-03-18T13:52:49.217Z,73.50
2018-03-18T13:55:16.735Z,73.40
2018-03-18T13:57:44.271Z,74.60
2018-03-18T14:00:11.828Z,74.60
2018-03-18T14:02:39.334Z,72.80
2018-03-18T14:05:07.649Z,76.70
2018-03-18T14:07:35.183Z,76.70
2018-03-18T14:10:02.714Z,72.90
2018-03-18T14:12:30.266Z,72.30
2018-03-18T14:14:57.775Z,71.60
2018-03-18T14:17:25.324Z,72.00
2018-03-18T14:19:52.837Z,72.00
2018-03-18T14:22:20.728Z,72.00
2018-03-18T14:24:48.246Z,70.70
2018-03-18T14:27:15.769Z,73.40
2018-03-18T14:29:43.313Z,71.20
2018-03-18T14:32:11.602Z,72.10
2018-03-18T14:34:39.936Z,71.20
2018-03-18T14:37:07.427Z,71.20
2018-03-18T14:39:35.722Z,73.00
2018-03-18T14:42:03.998Z,72.10
2018-03-18T14:44:32.301Z,71.40
2018-03-18T14:46:59.810Z,71.20
2018-03-18T14:49:27.366Z,72.30
2018-03-18T14:51:54.882Z,72.40
2018-03-18T14:54:22.415Z,72.50
2018-03-18T14:56:49.925Z,71.80
2018-03-18T14:59:17.446Z,71.90
2018-03-18T15:01:44.962Z,73.00
2018-03-18T15:04:12.506Z,81.00
2018-03-18T15:06:40.023Z,75.80
2018-03-18T15:09:07.559Z,75.80
2018-03-18T15:11:35.851Z,78.40
2018-03-18T15:14:03.380Z,78.30
2018-03-18T15:16:30.891Z,78.40
2018-03-18T15:18:59.194Z,77.10
2018-03-18T15:21:26.703Z,77.10
2018-03-18T15:23:55.017Z,73.20
2018-03-18T15:26:22.523Z,73.20
2018-03-18T15:28:50.030Z,73.10
2018-03-18T15:31:17.558Z,73.30
2018-03-18T15:33:45.071Z,73.20
2018-03-18T15:36:12.612Z,72.30
2018-03-18T15:38:40.135Z,73.30
2018-03-18T15:41:08.434Z,74.60
2018-03-18T15:43:35.963Z,74.50
2018-03-18T15:46:03.492Z,73.90
2018-03-18T15:48:30.998Z,73.30
2018-03-18T15:50:59.341Z,72.90
2018-03-18T15:53:26.848Z,72.90
2018-03-18T15:55:54.379Z,73.20
2018-03-18T15:58:21.885Z,72.70
2018-03-18T16:00:49.547Z,72.80
2018-03-18T16:03:17.076Z,73.90
2018-03-18T16:05:45.521Z,74.30
2018-03-18T16:08:13.047Z,74.20
2018-03-18T16:10:40.584Z,74.10
2018-03-18T16:13:08.873Z,73.80
2018-03-18T16:15:37.186Z,74.20
2018-03-18T16:18:04.693Z,74.10
2018-03-18T16:20:32.987Z,80.00
2018-03-18T16:23:00.511Z,80.10
2018-03-18T16:25:28.042Z,75.90
2018-03-18T16:27:55.558Z,74.10
2018-03-18T16:30:50.463Z,73.40
2018-03-18T16:33:18.733Z,73.20
2018-03-18T16:35:47.026Z,76.50
2018-03-18T16:38:15.303Z,73.20
2018-03-18T16:40:42.821Z,73.10
2018-03-18T16:43:10.353Z,73.30
2018-03-18T16:45:37.867Z,73.20
2018-03-18T16:48:06.162Z,75.00
2018-03-18T16:50:33.684Z,75.00
2018-03-18T16:53:01.231Z,75.40
2018-03-18T16:55:29.069Z,77.00
2018-03-18T16:57:56.607Z,77.20
2018-03-18T17:00:24.529Z,76.70
2018-03-18T17:02:52.054Z,77.00
2018-03-18T17:05:19.582Z,76.40
2018-03-18T17:07:47.878Z,75.80
2018-03-18T17:10:15.397Z,75.80
2018-03-18T17:12:43.024Z,76.20
2018-03-18T17:15:10.603Z,76.30
2018-03-18T17:17:38.150Z,75.80
2018-03-18T17:20:05.662Z,75.90
2018-03-18T17:22:33.948Z,76.30
2018-03-18T17:25:02.276Z,76.00
2018-03-18T17:27:29.806Z,76.80
2018-03-18T17:29:57.314Z,76.30
2018-03-18T17:32:24.834Z,76.70
2018-03-18T17:34:52.338Z,77.20
2018-03-18T17:37:19.867Z,75.90
2018-03-18T17:39:47.418Z,76.50
2018-03-18T17:42:14.942Z,76.20
2018-03-18T17:44:54.969Z,76.40
2018-03-18T17:47:34.338Z,76.30
2018-03-18T17:50:14.337Z,75.80
2018-03-18T17:52:53.722Z,75.60
2018-03-18T17:55:30.807Z,76.40
2018-03-18T17:57:59.124Z,76.60
2018-03-18T18:00:26.639Z,76.60
2018-03-18T18:02:54.931Z,78.00
2018-03-18T18:05:22.503Z,77.20
2018-03-18T18:07:50.022Z,75.80
2018-03-18T18:10:17.592Z,76.50
2018-03-18T18:12:45.203Z,77.20
2018-03-18T18:15:12.706Z,76.70
2018-03-18T18:17:40.262Z,76.60
2018-03-18T18:20:07.778Z,76.80
2018-03-18T18:22:35.922Z,77.00
2018-03-18T18:25:04.215Z,77.50
2018-03-18T18:27:31.731Z,77.40
2018-03-18T18:29:59.259Z,77.60
2018-03-18T18:32:26.762Z,78.00
2018-03-18T18:34:54.290Z,77.20
2018-03-18T18:37:21.846Z,77.80
2018-03-18T18:39:49.615Z,78.70
2018-03-18T18:42:17.135Z,77.90
2018-03-18T18:44:45.430Z,77.50
2018-03-18T18:47:12.944Z,77.40
2018-03-18T18:49:40.493Z,77.80
2018-03-18T18:52:08.002Z,78.20
2018-03-18T18:54:35.571Z,78.30
2018-03-18T18:57:03.086Z,78.30
2018-03-18T18:59:30.659Z,77.60
2018-03-18T19:01:58.942Z,78.50
2018-03-18T19:04:27.249Z,78.70
2018-03-18T19:06:54.766Z,78.60
2018-03-18T19:09:22.291Z,78.50
2018-03-18T19:11:49.842Z,79.10
2018-03-18T19:14:17.423Z,79.40
2018-03-18T19:16:44.975Z,79.50
2018-03-18T19:19:12.494Z,80.00
2018-03-18T19:21:40.003Z,80.00
2018-03-18T19:24:07.756Z,79.30
2018-03-18T19:26:35.279Z,78.60
2018-03-18T19:29:02.782Z,79.00
2018-03-18T19:31:30.310Z,79.60
2018-03-18T19:33:57.814Z,79.30
2018-03-18T19:36:25.361Z,79.00
2018-03-18T19:38:52.878Z,78.80
2018-03-18T19:41:20.409Z,78.80
2018-03-18T19:43:47.923Z,79.00
2018-03-18T19:46:15.455Z,79.40
2018-03-18T19:48:43.730Z,79.20
2018-03-18T19:51:12.052Z,79.20
2018-03-18T19:53:39.570Z,79.20
2018-03-18T19:56:07.872Z,78.90
2018-03-18T19:58:35.399Z,78.90
2018-03-18T20:01:03.714Z,79.10
2018-03-18T20:03:31.218Z,79.00
2018-03-18T20:05:58.772Z,79.40
2018-03-18T20:08:26.289Z,79.50
2018-03-18T20:10:53.823Z,79.90
2018-03-18T20:13:21.615Z,80.20
2018-03-18T20:15:49.150Z,80.00
2018-03-18T20:18:17.492Z,79.30
2018-03-18T20:20:45.028Z,79.20
2018-03-18T20:23:12.599Z,79.60
2018-03-18T20:25:40.146Z,79.90
2018-03-18T20:28:07.666Z,79.80
2018-03-18T20:30:35.972Z,79.10
2018-03-18T20:33:03.487Z,79.60
2018-03-18T20:35:31.060Z,80.30
2018-03-18T20:37:59.386Z,80.80
2018-03-18T20:40:26.926Z,80.80
2018-03-18T20:42:54.822Z,80.80
2018-03-18T20:45:22.338Z,80.90
2018-03-18T20:47:50.671Z,80.90
2018-03-18T20:50:18.191Z,80.80
2018-03-18T20:52:45.730Z,80.60
2018-03-18T20:55:14.010Z,80.20
2018-03-18T20:57:42.309Z,80.40
2018-03-18T21:00:10.681Z,80.30
2018-03-18T21:02:39.347Z,80.50
2018-03-18T21:05:07.647Z,80.40
2018-03-18T21:07:35.946Z,80.50
2018-03-18T21:10:22.851Z,80.40
2018-03-18T21:12:50.374Z,80.50
2018-03-18T21:15:17.886Z,80.40
2018-03-18T21:17:45.421Z,80.30
2018-03-18T21:20:13.936Z,81.00
2018-03-18T21:22:41.481Z,81.00
2018-03-18T21:25:08.990Z,80.80
2018-03-18T21:27:36.565Z,80.50
2018-03-18T21:30:04.092Z,80.80
2018-03-18T21:32:31.854Z,80.90
2018-03-18T21:34:59.369Z,80.40
2018-03-18T21:37:27.662Z,80.70
2018-03-18T21:39:58.207Z,80.60
2018-03-18T21:42:26.499Z,80.80
2018-03-18T21:44:54.021Z,80.70
2018-03-18T21:47:21.555Z,80.20
2018-03-18T21:49:49.846Z,80.70
2018-03-18T21:52:18.358Z,80.80
2018-03-18T21:54:46.543Z,80.80
2018-03-18T21:57:14.050Z,81.30
2018-03-18T21:59:42.365Z,81.00
2018-03-18T22:02:09.891Z,81.00
2018-03-18T22:04:38.191Z,81.20
2018-03-18T22:07:06.467Z,81.20
2018-03-18T22:09:34.771Z,81.30
2018-03-18T22:12:02.295Z,81.20
2018-03-18T22:14:30.582Z,81.50
2018-03-18T22:16:58.864Z,81.50
2018-03-18T22:19:27.158Z,81.70
2018-03-18T22:21:54.671Z,81.70
2018-03-18T22:24:22.199Z,81.60
2018-03-18T22:26:49.702Z,81.90
2018-03-18T22:29:17.234Z,81.90
2018-03-18T22:31:44.753Z,81.90
2018-03-18T22:34:12.273Z,81.80
2018-03-18T22:36:39.785Z,82.00
2018-03-18T22:39:07.308Z,82.40
2018-03-18T22:41:35.587Z,82.60
2018-03-18T22:44:03.875Z,82.80
2018-03-18T22:46:31.373Z,82.70
2018-03-18T22:48:58.894Z,82.90
2018-03-18T22:51:27.210Z,83.20
2018-03-18T22:53:54.708Z,83.10
2018-03-18T22:56:22.988Z,83.40
2018-03-18T22:58:52.039Z,83.40
2018-03-18T23:01:19.585Z,83.40
2018-03-18T23:03:47.837Z,83.90
2018-03-18T23:06:16.127Z,83.70
2018-03-18T23:08:43.652Z,83.60
2018-03-18T23:11:11.194Z,83.80
2018-03-18T23:13:38.698Z,83.60
2018-03-18T23:16:06.986Z,83.70
2018-03-18T23:18:34.494Z,83.60
2018-03-18T23:21:02.026Z,83.60
2018-03-18T23:23:29.547Z,83.50
2018-03-18T23:25:57.848Z,83.70
2018-03-18T23:28:25.367Z,83.70
2018-03-18T23:30:52.903Z,84.00
2018-03-18T23:33:20.408Z,84.60
2018-03-18T23:35:48.703Z,85.00
2018-03-18T23:38:16.213Z,84.90
2018-03-18T23:40:43.738Z,84.70
2018-03-18T23:43:11.247Z,84.60
2018-03-18T23:45:38.785Z,84.90
2018-03-18T23:48:06.298Z,85.20
2018-03-18T23:50:33.828Z,84.90
2018-03-18T23:53:01.343Z,84.70
2018-03-18T23:55:28.872Z,84.60
2018-03-18T23:57:56.390Z,85.10
